sensor_id;sensor_type;location;lat;lon;timestamp;temperature;humidity
28524;DHT22;15734;50.904;6.922;2024-01-10T00:00:18;-6.00;99.90
28524;DHT22;15734;50.904;6.922;2024-01-10T00:02:44;-6.00;99.90
28524;DHT22;15734;50.904;6.922;2024-01-10T00:05:09;-6.00;99.90
28524;DHT22;15734;50.904;6.922;2024-01-10T00:07:35;-5.90;99.90
28524;DHT22;15734;50.904;6.922;2024-01-10T00:10:02;-6.00;99.90
28524;DHT22;15734;50.904;6.922;2024-01-10T00:12:28;-6.00;99.90
28524;DHT22;15734;50.904;6.922;2024-01-10T00:14:58;-6.00;99.90
28524;DHT22;15734;50.904;6.922;2024-01-10T00:17:24;-6.10;99.90
28524;DHT22;15734;50.904;6.922;2024-01-10T00:19:49;-6.20;99.90
28524;DHT22;15734;50.904;6.922;2024-01-10T00:22:15;-6.10;99.90
28524;DHT22;15734;50.904;6.922;2024-01-10T00:24:40;-6.00;99.90
28524;DHT22;15734;50.904;6.922;2024-01-10T00:27:06;-5.90;99.90
28524;DHT22;15734;50.904;6.922;2024-01-10T00:29:32;-5.80;99.90
28524;DHT22;15734;50.904;6.922;2024-01-10T00:31:57;-5.90;99.90
28524;DHT22;15734;50.904;6.922;2024-01-10T00:34:24;-6.00;99.90
28524;DHT22;15734;50.904;6.922;2024-01-10T00:36:50;-6.00;99.90
28524;DHT22;15734;50.904;6.922;2024-01-10T00:39:15;-6.00;99.90
28524;DHT22;15734;50.904;6.922;2024-01-10T00:41:41;-6.10;99.90
28524;DHT22;15734;50.904;6.922;2024-01-10T00:44:06;-6.00;99.90
28524;DHT22;15734;50.904;6.922;2024-01-10T00:46:32;-6.00;99.90
28524;DHT22;15734;50.904;6.922;2024-01-10T00:48:57;-6.00;99.90
28524;DHT22;15734;50.904;6.922;2024-01-10T00:51:23;-5.90;99.90
28524;DHT22;15734;50.904;6.922;2024-01-10T00:53:48;-5.80;99.90
28524;DHT22;15734;50.904;6.922;2024-01-10T00:56:14;-5.90;99.90
28524;DHT22;15734;50.904;6.922;2024-01-10T00:58:39;-5.90;99.90
28524;DHT22;15734;50.904;6.922;2024-01-10T01:01:06;-6.00;99.90
28524;DHT22;15734;50.904;6.922;2024-01-10T01:03:32;-6.00;99.90
28524;DHT22;15734;50.904;6.922;2024-01-10T01:05:57;-6.10;99.90
28524;DHT22;15734;50.904;6.922;2024-01-10T01:08:23;-6.10;99.90
28524;DHT22;15734;50.904;6.922;2024-01-10T01:10:48;-5.90;99.90
28524;DHT22;15734;50.904;6.922;2024-01-10T01:13:14;-5.90;99.90
28524;DHT22;15734;50.904;6.922;2024-01-10T01:15:40;-5.80;99.90
28524;DHT22;15734;50.904;6.922;2024-01-10T01:18:05;-5.90;99.90
28524;DHT22;15734;50.904;6.922;2024-01-10T01:20:31;-6.00;99.90
28524;DHT22;15734;50.904;6.922;2024-01-10T01:22:56;-6.00;99.90
28524;DHT22;15734;50.904;6.922;2024-01-10T01:25:22;-6.00;99.90
28524;DHT22;15734;50.904;6.922;2024-01-10T01:27:47;-6.10;99.90
28524;DHT22;15734;50.904;6.922;2024-01-10T01:30:13;-6.10;99.90
28524;DHT22;15734;50.904;6.922;2024-01-10T01:32:38;-6.20;99.90
28524;DHT22;15734;50.904;6.922;2024-01-10T01:35:04;-6.20;99.90
28524;DHT22;15734;50.904;6.922;2024-01-10T01:37:30;-6.20;99.90
28524;DHT22;15734;50.904;6.922;2024-01-10T01:39:55;-6.30;99.90
28524;DHT22;15734;50.904;6.922;2024-01-10T01:42:21;-6.30;99.90
28524;DHT22;15734;50.904;6.922;2024-01-10T01:44:46;-6.30;99.90
28524;DHT22;15734;50.904;6.922;2024-01-10T01:47:12;-6.20;99.90
28524;DHT22;15734;50.904;6.922;2024-01-10T01:49:38;-6.30;99.90
28524;DHT22;15734;50.904;6.922;2024-01-10T01:52:04;-6.30;99.90
28524;DHT22;15734;50.904;6.922;2024-01-10T01:54:31;-6.40;99.90
28524;DHT22;15734;50.904;6.922;2024-01-10T01:56:56;-6.30;99.90
28524;DHT22;15734;50.904;6.922;2024-01-10T01:59:22;-6.30;99.90
28524;DHT22;15734;50.904;6.922;2024-01-10T02:01:48;-6.30;99.90
28524;DHT22;15734;50.904;6.922;2024-01-10T02:04:14;-6.30;99.90
28524;DHT22;15734;50.904;6.922;2024-01-10T02:06:39;-6.20;99.90
28524;DHT22;15734;50.904;6.922;2024-01-10T02:09:05;-6.20;99.90
28524;DHT22;15734;50.904;6.922;2024-01-10T02:11:31;-6.30;99.90
28524;DHT22;15734;50.904;6.922;2024-01-10T02:13:57;-6.30;99.90
28524;DHT22;15734;50.904;6.922;2024-01-10T02:16:23;-6.20;99.90
28524;DHT22;15734;50.904;6.922;2024-01-10T02:18:49;-6.10;99.90
28524;DHT22;15734;50.904;6.922;2024-01-10T02:21:16;-6.20;99.90
28524;DHT22;15734;50.904;6.922;2024-01-10T02:23:45;-6.20;99.90
28524;DHT22;15734;50.904;6.922;2024-01-10T02:26:10;-6.20;99.90
28524;DHT22;15734;50.904;6.922;2024-01-10T02:28:36;-6.40;99.90
28524;DHT22;15734;50.904;6.922;2024-01-10T02:31:02;-6.40;99.90
28524;DHT22;15734;50.904;6.922;2024-01-10T02:33:28;-6.40;99.90
28524;DHT22;15734;50.904;6.922;2024-01-10T02:35:53;-6.40;99.90
28524;DHT22;15734;50.904;6.922;2024-01-10T02:38:19;-6.40;99.90
28524;DHT22;15734;50.904;6.922;2024-01-10T02:40:46;-6.40;99.90
28524;DHT22;15734;50.904;6.922;2024-01-10T02:43:12;-6.40;99.90
28524;DHT22;15734;50.904;6.922;2024-01-10T02:45:37;-6.50;99.90
28524;DHT22;15734;50.904;6.922;2024-01-10T02:48:03;-6.50;99.90
28524;DHT22;15734;50.904;6.922;2024-01-10T02:50:29;-6.70;99.90
28524;DHT22;15734;50.904;6.922;2024-01-10T02:52:54;-6.70;99.90
28524;DHT22;15734;50.904;6.922;2024-01-10T02:55:20;-6.70;99.90
28524;DHT22;15734;50.904;6.922;2024-01-10T02:57:45;-6.80;99.90
28524;DHT22;15734;50.904;6.922;2024-01-10T03:00:11;-6.70;99.90
28524;DHT22;15734;50.904;6.922;2024-01-10T03:02:37;-6.70;99.90
28524;DHT22;15734;50.904;6.922;2024-01-10T03:05:03;-6.70;99.90
28524;DHT22;15734;50.904;6.922;2024-01-10T03:07:28;-6.70;99.90
28524;DHT22;15734;50.904;6.922;2024-01-10T03:09:54;-6.60;99.90
28524;DHT22;15734;50.904;6.922;2024-01-10T03:12:20;-6.50;99.90
28524;DHT22;15734;50.904;6.922;2024-01-10T03:14:45;-6.40;99.90
28524;DHT22;15734;50.904;6.922;2024-01-10T03:17:11;-6.50;99.90
28524;DHT22;15734;50.904;6.922;2024-01-10T03:19:36;-6.50;99.90
28524;DHT22;15734;50.904;6.922;2024-01-10T03:22:08;-6.40;99.90
28524;DHT22;15734;50.904;6.922;2024-01-10T03:24:33;-6.50;99.90
28524;DHT22;15734;50.904;6.922;2024-01-10T03:26:59;-6.50;99.90
28524;DHT22;15734;50.904;6.922;2024-01-10T03:29:24;-6.50;99.90
28524;DHT22;15734;50.904;6.922;2024-01-10T03:31:50;-6.50;99.90
28524;DHT22;15734;50.904;6.922;2024-01-10T03:34:16;-6.50;99.90
28524;DHT22;15734;50.904;6.922;2024-01-10T03:36:43;-6.60;99.90
28524;DHT22;15734;50.904;6.922;2024-01-10T03:39:08;-6.60;99.90
28524;DHT22;15734;50.904;6.922;2024-01-10T03:41:34;-6.60;99.90
28524;DHT22;15734;50.904;6.922;2024-01-10T03:44:00;-6.70;99.90
28524;DHT22;15734;50.904;6.922;2024-01-10T03:46:25;-6.70;99.90
28524;DHT22;15734;50.904;6.922;2024-01-10T03:48:51;-6.60;99.90
28524;DHT22;15734;50.904;6.922;2024-01-10T03:51:18;-6.70;99.90
28524;DHT22;15734;50.904;6.922;2024-01-10T03:53:44;-6.80;99.90
28524;DHT22;15734;50.904;6.922;2024-01-10T03:56:11;-6.80;99.90
28524;DHT22;15734;50.904;6.922;2024-01-10T03:58:37;-6.70;99.90
28524;DHT22;15734;50.904;6.922;2024-01-10T04:01:06;-6.50;99.90
28524;DHT22;15734;50.904;6.922;2024-01-10T04:03:32;-6.40;99.90
28524;DHT22;15734;50.904;6.922;2024-01-10T04:05:58;-6.40;99.90
28524;DHT22;15734;50.904;6.922;2024-01-10T04:08:24;-6.40;99.90
28524;DHT22;15734;50.904;6.922;2024-01-10T04:10:49;-6.40;99.90
28524;DHT22;15734;50.904;6.922;2024-01-10T04:13:15;-6.50;99.90
28524;DHT22;15734;50.904;6.922;2024-01-10T04:15:40;-6.60;99.90
28524;DHT22;15734;50.904;6.922;2024-01-10T04:18:06;-6.60;99.90
28524;DHT22;15734;50.904;6.922;2024-01-10T04:20:32;-6.50;99.90
28524;DHT22;15734;50.904;6.922;2024-01-10T04:22:57;-6.40;99.90
28524;DHT22;15734;50.904;6.922;2024-01-10T04:25:23;-6.30;99.90
28524;DHT22;15734;50.904;6.922;2024-01-10T04:27:48;-6.20;99.90
28524;DHT22;15734;50.904;6.922;2024-01-10T04:30:15;-6.20;99.90
28524;DHT22;15734;50.904;6.922;2024-01-10T04:32:41;-6.30;99.90
28524;DHT22;15734;50.904;6.922;2024-01-10T04:35:07;-6.30;99.90
28524;DHT22;15734;50.904;6.922;2024-01-10T04:37:32;-6.40;99.90
28524;DHT22;15734;50.904;6.922;2024-01-10T04:39:58;-6.60;99.90
28524;DHT22;15734;50.904;6.922;2024-01-10T04:42:23;-6.70;99.90
28524;DHT22;15734;50.904;6.922;2024-01-10T04:44:49;-6.70;99.90
28524;DHT22;15734;50.904;6.922;2024-01-10T04:47:15;-6.90;99.90
28524;DHT22;15734;50.904;6.922;2024-01-10T04:49:41;-6.90;99.90
28524;DHT22;15734;50.904;6.922;2024-01-10T04:52:06;-7.00;99.90
28524;DHT22;15734;50.904;6.922;2024-01-10T04:54:32;-7.00;99.90
28524;DHT22;15734;50.904;6.922;2024-01-10T04:56:58;-6.90;99.90
28524;DHT22;15734;50.904;6.922;2024-01-10T04:59:23;-7.00;99.90
28524;DHT22;15734;50.904;6.922;2024-01-10T05:01:49;-7.00;99.90
28524;DHT22;15734;50.904;6.922;2024-01-10T05:04:15;-7.00;99.90
28524;DHT22;15734;50.904;6.922;2024-01-10T05:06:41;-6.90;99.90
28524;DHT22;15734;50.904;6.922;2024-01-10T05:09:06;-6.90;99.90
28524;DHT22;15734;50.904;6.922;2024-01-10T05:11:32;-6.90;99.90
28524;DHT22;15734;50.904;6.922;2024-01-10T05:13:57;-6.90;99.90
28524;DHT22;15734;50.904;6.922;2024-01-10T05:16:23;-6.90;99.90
28524;DHT22;15734;50.904;6.922;2024-01-10T05:18:48;-6.80;99.90
28524;DHT22;15734;50.904;6.922;2024-01-10T05:21:14;-6.70;99.90
28524;DHT22;15734;50.904;6.922;2024-01-10T05:23:39;-6.60;99.90
28524;DHT22;15734;50.904;6.922;2024-01-10T05:26:05;-6.60;99.90
28524;DHT22;15734;50.904;6.922;2024-01-10T05:28:31;-6.60;99.90
28524;DHT22;15734;50.904;6.922;2024-01-10T05:30:58;-6.60;99.90
28524;DHT22;15734;50.904;6.922;2024-01-10T05:33:23;-6.80;99.90
28524;DHT22;15734;50.904;6.922;2024-01-10T05:35:49;-7.00;99.90
28524;DHT22;15734;50.904;6.922;2024-01-10T05:38:14;-7.10;99.90
28524;DHT22;15734;50.904;6.922;2024-01-10T05:40:40;-7.10;99.90
28524;DHT22;15734;50.904;6.922;2024-01-10T05:43:06;-7.20;99.90
28524;DHT22;15734;50.904;6.922;2024-01-10T05:45:32;-7.20;99.90
28524;DHT22;15734;50.904;6.922;2024-01-10T05:47:58;-7.10;99.90
28524;DHT22;15734;50.904;6.922;2024-01-10T05:50:23;-7.00;99.90
28524;DHT22;15734;50.904;6.922;2024-01-10T05:52:49;-6.90;99.90
28524;DHT22;15734;50.904;6.922;2024-01-10T05:55:14;-6.80;99.90
28524;DHT22;15734;50.904;6.922;2024-01-10T05:57:40;-6.80;99.90
28524;DHT22;15734;50.904;6.922;2024-01-10T06:00:06;-6.70;99.90
28524;DHT22;15734;50.904;6.922;2024-01-10T06:02:41;-6.70;99.90
28524;DHT22;15734;50.904;6.922;2024-01-10T06:05:10;-6.60;99.90
28524;DHT22;15734;50.904;6.922;2024-01-10T06:07:40;-6.50;99.90
28524;DHT22;15734;50.904;6.922;2024-01-10T06:10:08;-6.40;99.90
28524;DHT22;15734;50.904;6.922;2024-01-10T06:12:35;-6.30;99.90
28524;DHT22;15734;50.904;6.922;2024-01-10T06:15:00;-6.30;99.90
28524;DHT22;15734;50.904;6.922;2024-01-10T06:17:26;-6.20;99.90
28524;DHT22;15734;50.904;6.922;2024-01-10T06:19:52;-6.20;99.90
28524;DHT22;15734;50.904;6.922;2024-01-10T06:22:17;-6.20;99.90
28524;DHT22;15734;50.904;6.922;2024-01-10T06:24:43;-6.40;99.90
28524;DHT22;15734;50.904;6.922;2024-01-10T06:27:09;-6.60;99.90
28524;DHT22;15734;50.904;6.922;2024-01-10T06:29:35;-6.50;99.90
28524;DHT22;15734;50.904;6.922;2024-01-10T06:32:02;-6.40;99.90
28524;DHT22;15734;50.904;6.922;2024-01-10T06:34:28;-6.40;99.90
28524;DHT22;15734;50.904;6.922;2024-01-10T06:36:53;-6.60;99.90
28524;DHT22;15734;50.904;6.922;2024-01-10T06:39:19;-6.60;99.90
28524;DHT22;15734;50.904;6.922;2024-01-10T06:41:49;-6.50;99.90
28524;DHT22;15734;50.904;6.922;2024-01-10T06:44:15;-6.40;99.90
28524;DHT22;15734;50.904;6.922;2024-01-10T06:46:43;-6.30;99.90
28524;DHT22;15734;50.904;6.922;2024-01-10T06:49:09;-6.30;99.90
28524;DHT22;15734;50.904;6.922;2024-01-10T06:51:35;-6.40;99.90
28524;DHT22;15734;50.904;6.922;2024-01-10T06:54:00;-6.60;99.90
28524;DHT22;15734;50.904;6.922;2024-01-10T06:56:29;-6.60;99.90
28524;DHT22;15734;50.904;6.922;2024-01-10T06:58:55;-6.70;99.90
28524;DHT22;15734;50.904;6.922;2024-01-10T07:01:20;-6.70;99.90
28524;DHT22;15734;50.904;6.922;2024-01-10T07:03:47;-6.60;99.90
28524;DHT22;15734;50.904;6.922;2024-01-10T07:06:13;-6.70;99.90
28524;DHT22;15734;50.904;6.922;2024-01-10T07:08:42;-6.60;99.90
28524;DHT22;15734;50.904;6.922;2024-01-10T07:11:08;-6.50;99.90
28524;DHT22;15734;50.904;6.922;2024-01-10T07:13:34;-6.60;99.90
28524;DHT22;15734;50.904;6.922;2024-01-10T07:15:59;-6.60;99.90
28524;DHT22;15734;50.904;6.922;2024-01-10T07:18:30;-6.60;99.90
28524;DHT22;15734;50.904;6.922;2024-01-10T07:20:56;-6.60;99.90
28524;DHT22;15734;50.904;6.922;2024-01-10T07:23:21;-6.50;99.90
28524;DHT22;15734;50.904;6.922;2024-01-10T07:25:51;-6.40;99.90
28524;DHT22;15734;50.904;6.922;2024-01-10T07:28:17;-6.30;99.90
28524;DHT22;15734;50.904;6.922;2024-01-10T07:30:43;-6.50;99.90
28524;DHT22;15734;50.904;6.922;2024-01-10T07:33:09;-6.50;99.90
28524;DHT22;15734;50.904;6.922;2024-01-10T07:35:35;-6.50;99.90
28524;DHT22;15734;50.904;6.922;2024-01-10T07:38:00;-6.50;99.90
28524;DHT22;15734;50.904;6.922;2024-01-10T07:40:26;-6.60;99.90
28524;DHT22;15734;50.904;6.922;2024-01-10T07:42:51;-6.70;99.90
28524;DHT22;15734;50.904;6.922;2024-01-10T07:45:17;-6.60;99.90
28524;DHT22;15734;50.904;6.922;2024-01-10T07:47:42;-6.50;99.90
28524;DHT22;15734;50.904;6.922;2024-01-10T07:50:09;-6.50;99.90
28524;DHT22;15734;50.904;6.922;2024-01-10T07:52:36;-6.50;99.90
28524;DHT22;15734;50.904;6.922;2024-01-10T07:55:02;-6.60;99.90
28524;DHT22;15734;50.904;6.922;2024-01-10T07:57:30;-6.50;99.90
28524;DHT22;15734;50.904;6.922;2024-01-10T07:59:56;-6.50;99.90
28524;DHT22;15734;50.904;6.922;2024-01-10T08:02:21;-6.40;99.90
28524;DHT22;15734;50.904;6.922;2024-01-10T08:04:47;-6.40;99.90
28524;DHT22;15734;50.904;6.922;2024-01-10T08:07:13;-6.40;99.90
28524;DHT22;15734;50.904;6.922;2024-01-10T08:09:38;-6.40;99.90
28524;DHT22;15734;50.904;6.922;2024-01-10T08:12:04;-6.40;99.90
28524;DHT22;15734;50.904;6.922;2024-01-10T08:14:30;-6.40;99.90
28524;DHT22;15734;50.904;6.922;2024-01-10T08:16:55;-6.30;99.90
28524;DHT22;15734;50.904;6.922;2024-01-10T08:19:24;-6.30;99.90
28524;DHT22;15734;50.904;6.922;2024-01-10T08:21:51;-6.40;99.90
28524;DHT22;15734;50.904;6.922;2024-01-10T08:24:17;-6.50;99.90
28524;DHT22;15734;50.904;6.922;2024-01-10T08:26:42;-6.50;99.90
28524;DHT22;15734;50.904;6.922;2024-01-10T08:29:08;-6.50;99.90
28524;DHT22;15734;50.904;6.922;2024-01-10T08:31:33;-6.40;99.90
28524;DHT22;15734;50.904;6.922;2024-01-10T08:33:59;-6.30;99.90
28524;DHT22;15734;50.904;6.922;2024-01-10T08:36:24;-6.30;99.90
28524;DHT22;15734;50.904;6.922;2024-01-10T08:38:50;-6.30;99.90
28524;DHT22;15734;50.904;6.922;2024-01-10T08:41:17;-6.20;99.90
28524;DHT22;15734;50.904;6.922;2024-01-10T08:43:42;-6.10;99.90
28524;DHT22;15734;50.904;6.922;2024-01-10T08:46:08;-6.00;99.90
28524;DHT22;15734;50.904;6.922;2024-01-10T08:48:35;-5.90;99.90
28524;DHT22;15734;50.904;6.922;2024-01-10T08:51:02;-5.80;99.90
28524;DHT22;15734;50.904;6.922;2024-01-10T08:53:27;-5.70;99.90
28524;DHT22;15734;50.904;6.922;2024-01-10T08:55:53;-5.60;99.90
28524;DHT22;15734;50.904;6.922;2024-01-10T08:58:18;-5.60;99.90
28524;DHT22;15734;50.904;6.922;2024-01-10T09:00:44;-5.60;99.90
28524;DHT22;15734;50.904;6.922;2024-01-10T09:03:09;-5.60;99.90
28524;DHT22;15734;50.904;6.922;2024-01-10T09:05:35;-5.60;99.90
28524;DHT22;15734;50.904;6.922;2024-01-10T09:08:00;-5.50;99.90
28524;DHT22;15734;50.904;6.922;2024-01-10T09:10:26;-5.50;99.90
28524;DHT22;15734;50.904;6.922;2024-01-10T09:12:53;-5.60;99.90
28524;DHT22;15734;50.904;6.922;2024-01-10T09:15:19;-5.70;99.90
28524;DHT22;15734;50.904;6.922;2024-01-10T09:17:45;-5.70;99.90
28524;DHT22;15734;50.904;6.922;2024-01-10T09:20:11;-5.70;99.90
28524;DHT22;15734;50.904;6.922;2024-01-10T09:22:37;-5.60;99.90
28524;DHT22;15734;50.904;6.922;2024-01-10T09:25:04;-5.60;99.90
28524;DHT22;15734;50.904;6.922;2024-01-10T09:27:31;-5.50;99.90
28524;DHT22;15734;50.904;6.922;2024-01-10T09:29:57;-5.40;99.90
28524;DHT22;15734;50.904;6.922;2024-01-10T09:32:22;-5.40;99.90
28524;DHT22;15734;50.904;6.922;2024-01-10T09:34:48;-5.40;99.90
28524;DHT22;15734;50.904;6.922;2024-01-10T09:37:13;-5.30;99.90
28524;DHT22;15734;50.904;6.922;2024-01-10T09:39:39;-5.20;99.90
28524;DHT22;15734;50.904;6.922;2024-01-10T09:42:05;-5.20;99.90
28524;DHT22;15734;50.904;6.922;2024-01-10T09:44:32;-5.20;99.90
28524;DHT22;15734;50.904;6.922;2024-01-10T09:46:58;-5.10;99.90
28524;DHT22;15734;50.904;6.922;2024-01-10T09:49:24;-5.10;99.90
28524;DHT22;15734;50.904;6.922;2024-01-10T09:54:18;-5.00;99.90
28524;DHT22;15734;50.904;6.922;2024-01-10T09:56:45;-4.80;99.90
28524;DHT22;15734;50.904;6.922;2024-01-10T09:59:10;-4.70;99.90
28524;DHT22;15734;50.904;6.922;2024-01-10T10:01:39;-4.60;99.90
28524;DHT22;15734;50.904;6.922;2024-01-10T10:04:07;-4.50;99.90
28524;DHT22;15734;50.904;6.922;2024-01-10T10:06:34;-4.40;99.90
28524;DHT22;15734;50.904;6.922;2024-01-10T10:09:00;-4.30;99.90
28524;DHT22;15734;50.904;6.922;2024-01-10T10:11:26;-4.20;99.90
28524;DHT22;15734;50.904;6.922;2024-01-10T10:13:51;-4.10;99.90
28524;DHT22;15734;50.904;6.922;2024-01-10T10:16:23;-4.00;99.90
28524;DHT22;15734;50.904;6.922;2024-01-10T10:18:52;-4.00;99.90
28524;DHT22;15734;50.904;6.922;2024-01-10T10:21:24;-3.90;99.90
28524;DHT22;15734;50.904;6.922;2024-01-10T10:24:02;-3.80;99.90
28524;DHT22;15734;50.904;6.922;2024-01-10T10:26:34;-3.60;99.90
28524;DHT22;15734;50.904;6.922;2024-01-10T10:29:00;-3.50;99.90
28524;DHT22;15734;50.904;6.922;2024-01-10T10:31:26;-3.40;99.90
28524;DHT22;15734;50.904;6.922;2024-01-10T10:33:52;-3.30;99.90
28524;DHT22;15734;50.904;6.922;2024-01-10T10:36:21;-3.10;99.90
28524;DHT22;15734;50.904;6.922;2024-01-10T10:38:47;-3.00;99.90
28524;DHT22;15734;50.904;6.922;2024-01-10T10:41:14;-2.90;99.90
28524;DHT22;15734;50.904;6.922;2024-01-10T10:43:40;-2.80;99.90
28524;DHT22;15734;50.904;6.922;2024-01-10T10:46:08;-2.70;99.90
28524;DHT22;15734;50.904;6.922;2024-01-10T10:48:36;-2.70;99.90
28524;DHT22;15734;50.904;6.922;2024-01-10T10:53:38;-2.60;99.90
28524;DHT22;15734;50.904;6.922;2024-01-10T10:56:06;-2.50;99.90
28524;DHT22;15734;50.904;6.922;2024-01-10T10:58:41;-2.50;99.90
28524;DHT22;15734;50.904;6.922;2024-01-10T11:01:08;-2.40;99.90
28524;DHT22;15734;50.904;6.922;2024-01-10T11:03:36;-2.30;99.90
28524;DHT22;15734;50.904;6.922;2024-01-10T11:06:03;-2.30;99.90
28524;DHT22;15734;50.904;6.922;2024-01-10T11:08:46;-2.30;99.90
28524;DHT22;15734;50.904;6.922;2024-01-10T11:14:18;-2.20;99.90
28524;DHT22;15734;50.904;6.922;2024-01-10T11:17:01;-2.10;99.90
28524;DHT22;15734;50.904;6.922;2024-01-10T11:24:58;-1.90;99.90
28524;DHT22;15734;50.904;6.922;2024-01-10T11:27:23;-1.80;99.90
28524;DHT22;15734;50.904;6.922;2024-01-10T11:29:51;-1.70;99.90
28524;DHT22;15734;50.904;6.922;2024-01-10T11:32:19;-1.60;99.90
28524;DHT22;15734;50.904;6.922;2024-01-10T11:34:57;-1.50;99.90
28524;DHT22;15734;50.904;6.922;2024-01-10T11:37:43;-1.50;99.90
28524;DHT22;15734;50.904;6.922;2024-01-10T11:40:09;-1.40;99.90
28524;DHT22;15734;50.904;6.922;2024-01-10T11:42:45;-1.50;99.90
28524;DHT22;15734;50.904;6.922;2024-01-10T11:47:57;-1.40;99.90
28524;DHT22;15734;50.904;6.922;2024-01-10T11:50:23;-1.30;99.90
28524;DHT22;15734;50.904;6.922;2024-01-10T11:52:53;-1.20;99.90
28524;DHT22;15734;50.904;6.922;2024-01-10T11:55:47;-1.10;99.90
28524;DHT22;15734;50.904;6.922;2024-01-10T11:58:13;-1.00;99.90
28524;DHT22;15734;50.904;6.922;2024-01-10T12:00:40;-0.90;99.90
28524;DHT22;15734;50.904;6.922;2024-01-10T12:03:07;-0.60;99.90
28524;DHT22;15734;50.904;6.922;2024-01-10T12:05:34;-0.50;99.90
28524;DHT22;15734;50.904;6.922;2024-01-10T12:08:00;-0.20;99.90
28524;DHT22;15734;50.904;6.922;2024-01-10T12:10:26;0.00;99.90
28524;DHT22;15734;50.904;6.922;2024-01-10T12:12:52;0.10;99.90
28524;DHT22;15734;50.904;6.922;2024-01-10T12:15:20;0.30;99.90
28524;DHT22;15734;50.904;6.922;2024-01-10T12:17:46;0.50;99.90
28524;DHT22;15734;50.904;6.922;2024-01-10T12:20:11;0.70;99.90
28524;DHT22;15734;50.904;6.922;2024-01-10T12:22:37;0.90;99.90
28524;DHT22;15734;50.904;6.922;2024-01-10T12:25:06;0.70;99.90
28524;DHT22;15734;50.904;6.922;2024-01-10T12:27:32;0.80;99.90
28524;DHT22;15734;50.904;6.922;2024-01-10T12:30:00;0.80;99.90
28524;DHT22;15734;50.904;6.922;2024-01-10T12:32:28;0.80;99.90
28524;DHT22;15734;50.904;6.922;2024-01-10T12:35:03;0.70;99.90
28524;DHT22;15734;50.904;6.922;2024-01-10T12:37:30;0.60;99.90
28524;DHT22;15734;50.904;6.922;2024-01-10T12:39:56;0.60;99.90
28524;DHT22;15734;50.904;6.922;2024-01-10T12:42:21;0.50;99.90
28524;DHT22;15734;50.904;6.922;2024-01-10T12:44:47;0.50;99.90
28524;DHT22;15734;50.904;6.922;2024-01-10T12:47:24;0.40;99.90
28524;DHT22;15734;50.904;6.922;2024-01-10T12:49:50;0.20;99.90
28524;DHT22;15734;50.904;6.922;2024-01-10T12:52:16;0.20;99.90
28524;DHT22;15734;50.904;6.922;2024-01-10T12:54:42;0.20;99.90
28524;DHT22;15734;50.904;6.922;2024-01-10T12:57:08;0.30;99.90
28524;DHT22;15734;50.904;6.922;2024-01-10T12:59:33;0.40;99.90
28524;DHT22;15734;50.904;6.922;2024-01-10T13:01:59;0.40;99.90
28524;DHT22;15734;50.904;6.922;2024-01-10T13:04:25;0.40;99.90
28524;DHT22;15734;50.904;6.922;2024-01-10T13:06:51;0.40;99.90
28524;DHT22;15734;50.904;6.922;2024-01-10T13:09:16;0.50;99.90
28524;DHT22;15734;50.904;6.922;2024-01-10T13:11:42;0.60;99.90
28524;DHT22;15734;50.904;6.922;2024-01-10T13:14:08;0.60;99.90
28524;DHT22;15734;50.904;6.922;2024-01-10T13:16:34;0.80;99.90
28524;DHT22;15734;50.904;6.922;2024-01-10T13:19:00;0.70;99.90
28524;DHT22;15734;50.904;6.922;2024-01-10T13:21:26;0.70;99.90
28524;DHT22;15734;50.904;6.922;2024-01-10T13:23:51;0.70;99.90
28524;DHT22;15734;50.904;6.922;2024-01-10T13:26:17;0.90;99.90
28524;DHT22;15734;50.904;6.922;2024-01-10T13:28:43;1.00;99.90
28524;DHT22;15734;50.904;6.922;2024-01-10T13:31:09;1.10;99.90
28524;DHT22;15734;50.904;6.922;2024-01-10T13:33:35;1.00;99.90
28524;DHT22;15734;50.904;6.922;2024-01-10T13:36:01;1.10;99.90
28524;DHT22;15734;50.904;6.922;2024-01-10T13:38:26;1.00;99.90
28524;DHT22;15734;50.904;6.922;2024-01-10T13:40:52;1.00;99.90
28524;DHT22;15734;50.904;6.922;2024-01-10T13:43:18;0.90;99.90
28524;DHT22;15734;50.904;6.922;2024-01-10T13:45:43;1.00;99.90
28524;DHT22;15734;50.904;6.922;2024-01-10T13:48:09;0.90;99.90
28524;DHT22;15734;50.904;6.922;2024-01-10T13:50:36;0.80;99.90
28524;DHT22;15734;50.904;6.922;2024-01-10T13:53:01;0.80;99.90
28524;DHT22;15734;50.904;6.922;2024-01-10T13:55:29;0.60;99.90
28524;DHT22;15734;50.904;6.922;2024-01-10T13:57:55;0.60;99.90
28524;DHT22;15734;50.904;6.922;2024-01-10T14:00:22;0.80;99.90
28524;DHT22;15734;50.904;6.922;2024-01-10T14:02:48;0.80;99.90
28524;DHT22;15734;50.904;6.922;2024-01-10T14:05:14;0.80;99.90
28524;DHT22;15734;50.904;6.922;2024-01-10T14:07:39;0.70;99.90
28524;DHT22;15734;50.904;6.922;2024-01-10T14:10:05;0.60;99.90
28524;DHT22;15734;50.904;6.922;2024-01-10T14:12:31;0.70;99.90
28524;DHT22;15734;50.904;6.922;2024-01-10T14:14:57;0.70;99.90
28524;DHT22;15734;50.904;6.922;2024-01-10T14:17:25;0.60;99.90
28524;DHT22;15734;50.904;6.922;2024-01-10T14:19:53;0.60;99.90
28524;DHT22;15734;50.904;6.922;2024-01-10T14:22:19;0.50;99.90
28524;DHT22;15734;50.904;6.922;2024-01-10T14:24:45;0.60;99.90
28524;DHT22;15734;50.904;6.922;2024-01-10T14:27:10;0.70;99.90
28524;DHT22;15734;50.904;6.922;2024-01-10T14:29:36;0.80;99.90
28524;DHT22;15734;50.904;6.922;2024-01-10T14:32:01;0.80;99.90
28524;DHT22;15734;50.904;6.922;2024-01-10T14:34:27;0.70;99.90
28524;DHT22;15734;50.904;6.922;2024-01-10T14:36:53;0.80;99.90
28524;DHT22;15734;50.904;6.922;2024-01-10T14:39:18;0.90;99.90
28524;DHT22;15734;50.904;6.922;2024-01-10T14:41:44;0.90;99.90
28524;DHT22;15734;50.904;6.922;2024-01-10T14:44:10;1.00;99.90
28524;DHT22;15734;50.904;6.922;2024-01-10T14:46:36;1.20;99.90
28524;DHT22;15734;50.904;6.922;2024-01-10T14:49:02;1.30;99.90
28524;DHT22;15734;50.904;6.922;2024-01-10T14:51:27;1.20;99.90
28524;DHT22;15734;50.904;6.922;2024-01-10T14:53:53;1.40;99.90
28524;DHT22;15734;50.904;6.922;2024-01-10T14:56:18;1.30;99.90
28524;DHT22;15734;50.904;6.922;2024-01-10T14:58:44;1.30;99.90
28524;DHT22;15734;50.904;6.922;2024-01-10T15:01:10;1.40;99.90
28524;DHT22;15734;50.904;6.922;2024-01-10T15:03:36;1.20;99.90
28524;DHT22;15734;50.904;6.922;2024-01-10T15:06:04;1.20;99.90
28524;DHT22;15734;50.904;6.922;2024-01-10T15:08:30;1.20;99.90
28524;DHT22;15734;50.904;6.922;2024-01-10T15:10:56;1.10;99.90
28524;DHT22;15734;50.904;6.922;2024-01-10T15:13:21;1.20;99.90
28524;DHT22;15734;50.904;6.922;2024-01-10T15:15:47;1.30;99.90
28524;DHT22;15734;50.904;6.922;2024-01-10T15:18:12;1.40;99.90
28524;DHT22;15734;50.904;6.922;2024-01-10T15:20:38;1.30;99.90
28524;DHT22;15734;50.904;6.922;2024-01-10T15:23:04;1.10;99.90
28524;DHT22;15734;50.904;6.922;2024-01-10T15:25:29;1.10;99.90
28524;DHT22;15734;50.904;6.922;2024-01-10T15:27:55;0.90;99.90
28524;DHT22;15734;50.904;6.922;2024-01-10T15:30:20;0.90;99.90
28524;DHT22;15734;50.904;6.922;2024-01-10T15:32:48;0.70;99.90
28524;DHT22;15734;50.904;6.922;2024-01-10T15:35:15;0.70;99.90
28524;DHT22;15734;50.904;6.922;2024-01-10T15:37:40;0.70;99.90
28524;DHT22;15734;50.904;6.922;2024-01-10T15:40:10;0.50;99.90
28524;DHT22;15734;50.904;6.922;2024-01-10T15:42:40;0.40;99.90
